createdAt,value
2017-11-22T00:00:02.754Z,6.87
2017-11-22T00:00:06.784Z,6.87
2017-11-22T00:00:10.943Z,6.87
2017-11-22T00:00:15.201Z,6.87
2017-11-22T00:00:19.354Z,6.87
2017-11-22T00:00:23.765Z,6.88
2017-11-22T00:00:27.947Z,6.88
2017-11-22T00:00:32.113Z,6.87
2017-11-22T00:00:36.487Z,6.87
2017-11-22T00:00:40.753Z,6.88
2017-11-22T00:00:44.789Z,6.87
2017-11-22T00:00:49.182Z,6.88
2017-11-22T00:00:53.334Z,6.87
2017-11-22T00:00:57.599Z,6.87
2017-11-22T00:01:01.862Z,6.87
2017-11-22T00:01:06.041Z,6.88
2017-11-22T00:01:10.072Z,6.88
2017-11-22T00:01:14.257Z,6.87
2017-11-22T00:01:18.625Z,6.88
2017-11-22T00:01:22.776Z,6.87
2017-11-22T00:01:27.023Z,6.87
2017-11-22T00:01:31.082Z,6.87
2017-11-22T00:01:35.282Z,6.88
2017-11-22T00:01:39.539Z,6.87
2017-11-22T00:01:43.931Z,6.88
2017-11-22T00:01:48.211Z,6.87
2017-11-22T00:01:52.476Z,6.88
2017-11-22T00:01:56.846Z,6.88
2017-11-22T00:02:00.889Z,6.88
2017-11-22T00:02:05.159Z,6.88
2017-11-22T00:02:09.087Z,6.88
2017-11-22T00:02:13.479Z,6.88
2017-11-22T00:02:17.748Z,6.88
2017-11-22T00:02:22.124Z,6.87
2017-11-22T00:02:26.267Z,6.88
2017-11-22T00:02:30.649Z,6.89
2017-11-22T00:02:35.030Z,6.88
2017-11-22T00:02:39.325Z,6.89
2017-11-22T00:02:43.693Z,6.88
2017-11-22T00:02:47.832Z,6.88
2017-11-22T00:02:52.209Z,6.88
2017-11-22T00:02:56.460Z,6.87
2017-11-22T00:03:00.823Z,6.88
2017-11-22T00:03:05.010Z,6.88
2017-11-22T00:03:09.402Z,6.88
2017-11-22T00:03:13.663Z,6.88
2017-11-22T00:03:17.806Z,6.88
2017-11-22T00:03:21.734Z,6.88
2017-11-22T00:03:25.877Z,6.88
2017-11-22T00:03:30.120Z,6.88
2017-11-22T00:03:34.146Z,6.87
2017-11-22T00:03:38.210Z,6.88
2017-11-22T00:03:42.574Z,6.88
2017-11-22T00:03:46.852Z,6.87
2017-11-22T00:03:51.214Z,6.88
2017-11-22T00:03:55.604Z,6.88
2017-11-22T00:04:00.011Z,6.87
2017-11-22T00:04:04.582Z,6.87
2017-11-22T00:04:08.723Z,6.88
2017-11-22T00:04:12.648Z,6.88
2017-11-22T00:04:17.024Z,6.88
2017-11-22T00:04:21.188Z,6.88
2017-11-22T00:04:25.602Z,6.88
2017-11-22T00:04:29.879Z,6.87
2017-11-22T00:04:34.240Z,6.88
2017-11-22T00:04:38.385Z,6.87
2017-11-22T00:04:42.674Z,6.88
2017-11-22T00:04:47.050Z,6.88
2017-11-22T00:04:51.192Z,6.88
2017-11-22T00:04:55.612Z,6.89
2017-11-22T00:04:59.886Z,6.88
2017-11-22T00:05:04.133Z,6.88
2017-11-22T00:05:08.400Z,6.89
2017-11-22T00:05:12.797Z,6.88
2017-11-22T00:05:17.057Z,6.88
2017-11-22T00:05:21.311Z,6.88
2017-11-22T00:05:25.460Z,6.88
2017-11-22T00:05:29.713Z,6.88
2017-11-22T00:05:33.965Z,6.88
2017-11-22T00:05:38.237Z,6.88
2017-11-22T00:05:42.630Z,6.88
2017-11-22T00:05:46.994Z,6.87
2017-11-22T00:05:51.272Z,6.89
2017-11-22T00:05:55.559Z,6.88
2017-11-22T00:05:59.721Z,6.89
2017-11-22T00:06:04.365Z,6.88
2017-11-22T00:06:08.530Z,6.88
2017-11-22T00:06:12.791Z,6.89
2017-11-22T00:06:17.041Z,6.89
2017-11-22T00:06:21.299Z,6.89
2017-11-22T00:06:25.349Z,6.89
2017-11-22T00:06:29.728Z,6.88
2017-11-22T00:06:34.114Z,6.89
2017-11-22T00:06:38.272Z,6.89
2017-11-22T00:06:42.402Z,6.89
2017-11-22T00:06:46.788Z,6.9
2017-11-22T00:06:51.165Z,6.89
2017-11-22T00:06:55.212Z,6.89
2017-11-22T00:06:59.591Z,6.9
2017-11-22T00:07:04.070Z,6.89
2017-11-22T00:07:08.221Z,6.9
2017-11-22T00:07:12.596Z,6.9
2017-11-22T00:07:17.014Z,6.9
2017-11-22T00:07:21.172Z,6.9
2017-11-22T00:07:25.439Z,6.9
2017-11-22T00:07:29.836Z,6.89
2017-11-22T00:07:33.993Z,6.9
2017-11-22T00:07:38.278Z,6.9
2017-11-22T00:07:42.553Z,6.89
2017-11-22T00:07:46.912Z,6.9
2017-11-22T00:07:51.190Z,6.89
2017-11-22T00:07:55.589Z,6.9
2017-11-22T00:07:59.971Z,6.9
2017-11-22T00:08:04.248Z,6.89
2017-11-22T00:08:08.637Z,6.89
2017-11-22T00:08:12.785Z,6.9
2017-11-22T00:08:16.967Z,6.89
2017-11-22T00:08:21.350Z,6.9
2017-11-22T00:08:25.529Z,6.9
2017-11-22T00:08:29.912Z,6.9
2017-11-22T00:08:34.041Z,6.89
2017-11-22T00:08:38.407Z,6.89
2017-11-22T00:08:42.688Z,6.88
2017-11-22T00:08:46.947Z,6.88
2017-11-22T00:08:51.208Z,6.88
2017-11-22T00:08:55.589Z,6.9
2017-11-22T00:08:59.836Z,6.89
2017-11-22T00:09:04.279Z,6.9
2017-11-22T00:09:08.644Z,6.88
2017-11-22T00:09:12.794Z,6.9
2017-11-22T00:09:17.173Z,6.89
2017-11-22T00:09:21.542Z,6.9
2017-11-22T00:09:25.902Z,6.89
2017-11-22T00:09:30.161Z,6.88
2017-11-22T00:09:34.425Z,6.88
2017-11-22T00:09:38.696Z,6.89
2017-11-22T00:09:43.071Z,6.9
2017-11-22T00:09:47.355Z,6.89
2017-11-22T00:09:51.621Z,6.89
2017-11-22T00:09:56.001Z,6.88
2017-11-22T00:10:00.384Z,6.9
2017-11-22T00:10:04.664Z,6.89
2017-11-22T00:10:08.937Z,6.88
2017-11-22T00:10:12.869Z,6.9
2017-11-22T00:10:17.033Z,6.89
2017-11-22T00:10:21.295Z,6.9
2017-11-22T00:10:25.673Z,6.9
2017-11-22T00:10:29.869Z,6.9
2017-11-22T00:10:34.139Z,6.89
2017-11-22T00:10:38.388Z,6.89
2017-11-22T00:10:42.649Z,6.89
2017-11-22T00:10:47.021Z,6.89
2017-11-22T00:10:51.173Z,6.89
2017-11-22T00:10:55.569Z,6.89
2017-11-22T00:10:59.947Z,6.9
2017-11-22T00:11:04.565Z,6.9
2017-11-22T00:11:08.750Z,6.9
2017-11-22T00:11:13.128Z,6.89
2017-11-22T00:11:17.153Z,6.9
2017-11-22T00:11:21.531Z,6.9
2017-11-22T00:11:25.815Z,6.89
2017-11-22T00:11:29.849Z,6.89
2017-11-22T00:11:34.117Z,6.9
2017-11-22T00:11:38.513Z,6.9
2017-11-22T00:11:42.758Z,6.9
2017-11-22T00:11:47.129Z,6.9
2017-11-22T00:11:51.503Z,6.9
2017-11-22T00:11:55.762Z,6.9
2017-11-22T00:12:00.176Z,6.9
2017-11-22T00:12:04.465Z,6.9
2017-11-22T00:12:08.721Z,6.9
2017-11-22T00:12:13.105Z,6.89
2017-11-22T00:12:17.394Z,6.9
2017-11-22T00:12:21.432Z,6.9
2017-11-22T00:12:25.700Z,6.9
2017-11-22T00:12:30.070Z,6.9
2017-11-22T00:12:34.106Z,6.9
2017-11-22T00:12:38.474Z,6.89
2017-11-22T00:12:42.750Z,6.9
2017-11-22T00:12:46.898Z,6.9
2017-11-22T00:12:51.159Z,6.9
2017-11-22T00:12:55.527Z,6.91
2017-11-22T00:12:59.674Z,6.91
2017-11-22T00:13:04.353Z,6.9
2017-11-22T00:13:08.632Z,6.89
2017-11-22T00:13:13.019Z,6.92
2017-11-22T00:13:17.184Z,6.92
2017-11-22T00:13:21.335Z,6.91
2017-11-22T00:13:25.735Z,6.91
2017-11-22T00:13:29.999Z,6.91
2017-11-22T00:13:34.160Z,6.92
2017-11-22T00:13:38.558Z,6.91
2017-11-22T00:13:42.725Z,6.92
2017-11-22T00:13:46.981Z,6.92
2017-11-22T00:13:51.278Z,6.92
2017-11-22T00:13:55.333Z,6.92
2017-11-22T00:13:59.591Z,6.92
2017-11-22T00:14:04.034Z,6.92
2017-11-22T00:14:08.181Z,6.92
2017-11-22T00:14:12.546Z,6.93
2017-11-22T00:14:16.942Z,6.93
2017-11-22T00:14:20.994Z,6.93
2017-11-22T00:14:25.364Z,6.93
2017-11-22T00:14:29.617Z,6.93
2017-11-22T00:14:33.992Z,6.93
2017-11-22T00:14:38.255Z,6.92
2017-11-22T00:14:42.625Z,6.94
2017-11-22T00:14:46.995Z,6.93
2017-11-22T00:14:51.384Z,6.93
2017-11-22T00:14:55.754Z,6.93
2017-11-22T00:14:59.905Z,6.94
2017-11-22T00:15:04.188Z,6.93
2017-11-22T00:15:08.467Z,6.94
2017-11-22T00:15:12.737Z,6.94
2017-11-22T00:15:16.880Z,6.93
2017-11-22T00:15:21.136Z,6.94
2017-11-22T00:15:25.509Z,6.93
2017-11-22T00:15:29.665Z,6.94
2017-11-22T00:15:33.697Z,6.93
2017-11-22T00:15:37.957Z,6.93
2017-11-22T00:15:42.211Z,6.93
2017-11-22T00:15:46.574Z,6.93
2017-11-22T00:15:50.857Z,6.93
2017-11-22T00:15:55.113Z,6.94
2017-11-22T00:15:59.376Z,6.93
2017-11-22T00:16:03.760Z,6.93
2017-11-22T00:16:08.136Z,6.94
2017-11-22T00:16:12.306Z,6.93
2017-11-22T00:16:16.565Z,6.93
2017-11-22T00:16:20.937Z,6.93
2017-11-22T00:16:25.312Z,6.94
2017-11-22T00:16:29.461Z,6.94
2017-11-22T00:16:33.633Z,6.93
2017-11-22T00:16:37.899Z,6.93
2017-11-22T00:16:42.045Z,6.93
2017-11-22T00:16:46.431Z,6.94
2017-11-22T00:16:50.465Z,6.94
2017-11-22T00:16:54.630Z,6.93
2017-11-22T00:16:58.909Z,6.93
2017-11-22T00:17:03.554Z,6.93
2017-11-22T00:17:07.835Z,6.95
2017-11-22T00:17:12.110Z,6.94
2017-11-22T00:17:16.487Z,6.94
2017-11-22T00:17:20.850Z,6.94
2017-11-22T00:17:24.901Z,6.94
2017-11-22T00:17:29.170Z,6.93
2017-11-22T00:17:33.323Z,6.93
2017-11-22T00:17:37.486Z,6.93
2017-11-22T00:17:41.644Z,6.94
2017-11-22T00:17:45.899Z,6.93
2017-11-22T00:17:50.058Z,6.94
2017-11-22T00:17:54.387Z,6.94
2017-11-22T00:17:58.644Z,6.94
2017-11-22T00:18:03.015Z,6.94
2017-11-22T00:18:07.182Z,6.95
2017-11-22T00:18:11.445Z,6.94
2017-11-22T00:18:15.696Z,6.94
2017-11-22T00:18:19.955Z,6.95
2017-11-22T00:18:24.339Z,6.94
2017-11-22T00:18:28.698Z,6.94
2017-11-22T00:18:32.845Z,6.94
2017-11-22T00:18:37.114Z,6.94
2017-11-22T00:18:41.384Z,6.95
2017-11-22T00:18:45.667Z,6.96
2017-11-22T00:18:49.944Z,6.95
2017-11-22T00:18:53.969Z,6.96
2017-11-22T00:18:58.229Z,6.95
2017-11-22T00:19:02.588Z,6.95
2017-11-22T00:19:06.720Z,6.94
2017-11-22T00:19:10.968Z,6.95
2017-11-22T00:19:15.116Z,6.95
2017-11-22T00:19:19.479Z,6.95
2017-11-22T00:19:23.742Z,6.95
2017-11-22T00:19:27.787Z,6.95
2017-11-22T00:19:31.929Z,6.95
2017-11-22T00:19:36.082Z,6.95
2017-11-22T00:19:40.463Z,6.95
2017-11-22T00:19:44.754Z,6.94
2017-11-22T00:19:49.128Z,6.95
2017-11-22T00:19:53.499Z,6.95
2017-11-22T00:19:57.535Z,6.96
2017-11-22T00:20:01.901Z,6.96
2017-11-22T00:20:06.056Z,6.96
2017-11-22T00:20:10.335Z,6.96
2017-11-22T00:20:14.501Z,6.96
2017-11-22T00:20:18.800Z,6.96
2017-11-22T00:20:23.001Z,6.97
2017-11-22T00:20:27.249Z,6.97
2017-11-22T00:20:31.620Z,6.97
2017-11-22T00:20:35.872Z,6.97
2017-11-22T00:20:40.037Z,6.96
2017-11-22T00:20:44.419Z,6.97
2017-11-22T00:20:48.699Z,6.97
2017-11-22T00:20:52.961Z,6.97
2017-11-22T00:20:57.128Z,6.97
2017-11-22T00:21:01.714Z,6.97
2017-11-22T00:21:05.983Z,6.97
2017-11-22T00:21:10.246Z,6.97
2017-11-22T00:21:14.315Z,6.97
2017-11-22T00:21:18.689Z,6.98
2017-11-22T00:21:22.955Z,6.98
2017-11-22T00:21:27.233Z,6.99
2017-11-22T00:21:31.378Z,6.98
2017-11-22T00:21:35.533Z,6.98
2017-11-22T00:21:39.556Z,6.99
2017-11-22T00:21:43.927Z,6.98
2017-11-22T00:21:48.315Z,6.99
2017-11-22T00:21:52.616Z,6.99
2017-11-22T00:21:56.769Z,6.99
2017-11-22T00:22:01.021Z,6.99
2017-11-22T00:22:05.078Z,6.99
2017-11-22T00:22:09.453Z,6.99
2017-11-22T00:22:13.501Z,6.99
2017-11-22T00:22:17.865Z,6.99
2017-11-22T00:22:22.145Z,6.99
2017-11-22T00:22:26.298Z,7
2017-11-22T00:22:30.673Z,7
2017-11-22T00:22:34.927Z,7
2017-11-22T00:22:39.101Z,7
2017-11-22T00:22:43.377Z,7
2017-11-22T00:22:47.672Z,7.01
2017-11-22T00:22:52.092Z,7
2017-11-22T00:22:56.354Z,7.01
2017-11-22T00:23:00.635Z,7.01
2017-11-22T00:23:04.895Z,7.01
2017-11-22T00:23:09.275Z,7.02
2017-11-22T00:23:13.431Z,7
2017-11-22T00:23:17.804Z,7.02
2017-11-22T00:23:22.074Z,7.01
2017-11-22T00:23:26.357Z,7.02
2017-11-22T00:23:30.626Z,7.01
2017-11-22T00:23:34.988Z,7.03
2017-11-22T00:23:39.135Z,7.02
2017-11-22T00:23:43.300Z,7.04
2017-11-22T00:23:47.590Z,7.03
2017-11-22T00:23:51.875Z,7.03
2017-11-22T00:23:56.269Z,7.03
2017-11-22T00:24:00.534Z,7.04
2017-11-22T00:24:04.791Z,7.04
2017-11-22T00:24:09.156Z,7.02
2017-11-22T00:24:13.309Z,7.04
2017-11-22T00:24:17.583Z,7.04
2017-11-22T00:24:21.842Z,7.04
2017-11-22T00:24:26.247Z,7.05
2017-11-22T00:24:30.624Z,7.05
2017-11-22T00:24:34.797Z,7.06
2017-11-22T00:24:39.053Z,7.05
2017-11-22T00:24:43.104Z,7.06
2017-11-22T00:24:47.383Z,7.06
2017-11-22T00:24:51.636Z,7.06
2017-11-22T00:24:55.898Z,7.06
2017-11-22T00:25:00.264Z,7.07
2017-11-22T00:25:04.547Z,7.06
2017-11-22T00:25:08.817Z,7.06
2017-11-22T00:25:13.173Z,7.08
2017-11-22T00:25:17.426Z,7.08
2017-11-22T00:25:21.816Z,7.08
2017-11-22T00:25:26.179Z,7.07
2017-11-22T00:25:30.564Z,7.08
2017-11-22T00:25:34.717Z,7.08
2017-11-22T00:25:38.961Z,7.08
2017-11-22T00:25:43.225Z,7.08
2017-11-22T00:25:47.486Z,7.09
2017-11-22T00:25:51.525Z,7.09
2017-11-22T00:25:55.692Z,7.09
2017-11-22T00:25:59.840Z,7.09
2017-11-22T00:26:04.119Z,7.09
2017-11-22T00:26:08.381Z,7.1
2017-11-22T00:26:12.642Z,7.09
2017-11-22T00:26:16.687Z,7.1
2017-11-22T00:26:21.083Z,7.1
2017-11-22T00:26:25.224Z,7.1
2017-11-22T00:26:29.619Z,7.11
2017-11-22T00:26:33.685Z,7.11
2017-11-22T00:26:37.724Z,7.1
2017-11-22T00:26:41.990Z,7.11
2017-11-22T00:26:46.354Z,7.11
2017-11-22T00:26:50.611Z,7.11
2017-11-22T00:26:54.986Z,7.11
2017-11-22T00:26:59.242Z,7.12
2017-11-22T00:27:03.604Z,7.12
2017-11-22T00:27:07.896Z,7.11
2017-11-22T00:27:12.271Z,7.12
2017-11-22T00:27:16.423Z,7.12
2017-11-22T00:27:20.793Z,7.11
2017-11-22T00:27:25.061Z,7.12
2017-11-22T00:27:29.321Z,7.12
2017-11-22T00:27:33.679Z,7.12
2017-11-22T00:27:37.973Z,7.13
2017-11-22T00:27:42.345Z,7.12
2017-11-22T00:27:46.390Z,7.12
2017-11-22T00:27:50.658Z,7.13
2017-11-22T00:27:55.075Z,7.13
2017-11-22T00:27:59.312Z,7.14
2017-11-22T00:28:03.666Z,7.14
2017-11-22T00:28:07.923Z,7.13
2017-11-22T00:28:12.075Z,7.13
2017-11-22T00:28:16.438Z,7.14
2017-11-22T00:28:20.485Z,7.14
2017-11-22T00:28:24.749Z,7.14
2017-11-22T00:28:29.017Z,7.14
2017-11-22T00:28:33.287Z,7.14
2017-11-22T00:28:37.713Z,7.14
2017-11-22T00:28:41.978Z,7.14
2017-11-22T00:28:46.353Z,7.14
2017-11-22T00:28:50.745Z,7.15
2017-11-22T00:28:55.006Z,7.15
2017-11-22T00:28:59.373Z,7.15
2017-11-22T00:29:03.931Z,7.15
2017-11-22T00:29:08.192Z,7.15
2017-11-22T00:29:12.555Z,7.16
2017-11-22T00:29:16.596Z,7.15
2017-11-22T00:29:20.856Z,7.16
2017-11-22T00:29:25.226Z,7.16
2017-11-22T00:29:29.605Z,7.16
2017-11-22T00:29:33.992Z,7.17
2017-11-22T00:29:38.249Z,7.17
2017-11-22T00:29:42.404Z,7.16
2017-11-22T00:29:46.574Z,7.17
2017-11-22T00:29:50.947Z,7.17
2017-11-22T00:29:55.097Z,7.17
2017-11-22T00:29:59.351Z,7.18
2017-11-22T00:30:03.781Z,7.18
2017-11-22T00:30:08.196Z,7.18
2017-11-22T00:30:12.691Z,7.18
2017-11-22T00:30:16.957Z,7.18
2017-11-22T00:30:21.334Z,7.18
2017-11-22T00:30:25.609Z,7.18
2017-11-22T00:30:29.999Z,7.18
2017-11-22T00:30:34.267Z,7.18
2017-11-22T00:30:38.654Z,7.19
2017-11-22T00:30:42.913Z,7.19
2017-11-22T00:30:47.266Z,7.18
2017-11-22T00:30:51.525Z,7.19
2017-11-22T00:30:55.816Z,7.19
2017-11-22T00:30:59.973Z,7.19
2017-11-22T00:31:04.494Z,7.19
2017-11-22T00:31:08.776Z,7.19
2017-11-22T00:31:13.148Z,7.19
2017-11-22T00:31:17.400Z,7.2
2017-11-22T00:31:21.550Z,7.2
2017-11-22T00:31:25.484Z,7.2
2017-11-22T00:31:29.641Z,7.2
2017-11-22T00:31:33.557Z,7.2
2017-11-22T00:31:37.911Z,7.2
2017-11-22T00:31:42.291Z,7.2
2017-11-22T00:31:46.707Z,7.21
2017-11-22T00:31:51.003Z,7.21
2017-11-22T00:31:55.396Z,7.21
2017-11-22T00:31:59.768Z,7.2
2017-11-22T00:32:04.044Z,7.21
2017-11-22T00:32:08.428Z,7.21
2017-11-22T00:32:12.695Z,7.21
2017-11-22T00:32:17.086Z,7.21
2017-11-22T00:32:21.447Z,7.21
2017-11-22T00:32:25.760Z,7.22
2017-11-22T00:32:30.133Z,7.22
2017-11-22T00:32:34.381Z,7.22
2017-11-22T00:32:38.548Z,7.22
2017-11-22T00:32:42.815Z,7.22
2017-11-22T00:32:47.173Z,7.23
2017-11-22T00:32:51.425Z,7.23
2017-11-22T00:32:55.723Z,7.23
2017-11-22T00:33:00.086Z,7.23
2017-11-22T00:33:04.349Z,7.23
2017-11-22T00:33:08.624Z,7.23
2017-11-22T00:33:13.001Z,7.23
2017-11-22T00:33:17.379Z,7.24
2017-11-22T00:33:21.664Z,7.23
2017-11-22T00:33:25.700Z,7.23
2017-11-22T00:33:29.953Z,7.23
2017-11-22T00:33:34.212Z,7.24
2017-11-22T00:33:38.484Z,7.24
2017-11-22T00:33:42.748Z,7.23
2017-11-22T00:33:46.785Z,7.23
2017-11-22T00:33:50.953Z,7.23
2017-11-22T00:33:55.214Z,7.24
2017-11-22T00:33:59.383Z,7.25
2017-11-22T00:34:03.663Z,7.25
2017-11-22T00:34:08.046Z,7.24
2017-11-22T00:34:12.303Z,7.25
2017-11-22T00:34:16.546Z,7.24
2017-11-22T00:34:20.580Z,7.24
2017-11-22T00:34:24.731Z,7.25
2017-11-22T00:34:29.129Z,7.25
2017-11-22T00:34:33.524Z,7.26
2017-11-22T00:34:37.675Z,7.25
2017-11-22T00:34:42.062Z,7.25
2017-11-22T00:34:46.436Z,7.26
2017-11-22T00:34:50.809Z,7.26
2017-11-22T00:34:55.110Z,7.26
2017-11-22T00:34:59.483Z,7.27
2017-11-22T00:35:03.784Z,7.26
2017-11-22T00:35:08.164Z,7.26
2017-11-22T00:35:12.522Z,7.26
2017-11-22T00:35:16.885Z,7.26
2017-11-22T00:35:21.255Z,7.26
2017-11-22T00:35:25.637Z,7.26
2017-11-22T00:35:29.775Z,7.27
2017-11-22T00:35:34.026Z,7.27
2017-11-22T00:35:38.192Z,7.27
2017-11-22T00:35:42.339Z,7.26
2017-11-22T00:35:46.366Z,7.27
2017-11-22T00:35:50.744Z,7.27
2017-11-22T00:35:55.003Z,7.27
2017-11-22T00:35:59.382Z,7.27
2017-11-22T00:36:03.461Z,7.27
2017-11-22T00:36:07.606Z,7.27
2017-11-22T00:36:11.767Z,7.28
2017-11-22T00:36:16.051Z,7.28
2017-11-22T00:36:20.453Z,7.29
2017-11-22T00:36:24.810Z,7.29
2017-11-22T00:36:29.061Z,7.29
2017-11-22T00:36:33.222Z,7.29
2017-11-22T00:36:37.475Z,7.29
2017-11-22T00:36:41.743Z,7.29
2017-11-22T00:36:46.014Z,7.29
2017-11-22T00:36:50.395Z,7.3
2017-11-22T00:36:54.654Z,7.29
2017-11-22T00:36:59.058Z,7.29
2017-11-22T00:37:03.366Z,7.29
2017-11-22T00:37:07.639Z,7.3
2017-11-22T00:37:11.953Z,7.3
2017-11-22T00:37:16.243Z,7.3
2017-11-22T00:37:20.398Z,7.3
2017-11-22T00:37:24.549Z,7.29
2017-11-22T00:37:28.824Z,7.31
2017-11-22T00:37:33.187Z,7.3
2017-11-22T00:37:37.343Z,7.31
2017-11-22T00:37:41.625Z,7.31
2017-11-22T00:37:45.888Z,7.32
2017-11-22T00:37:50.274Z,7.31
2017-11-22T00:37:54.544Z,7.32
2017-11-22T00:37:58.704Z,7.32
2017-11-22T00:38:02.993Z,7.32
2017-11-22T00:38:07.384Z,7.32
2017-11-22T00:38:11.759Z,7.32
2017-11-22T00:38:16.128Z,7.33
2017-11-22T00:38:20.154Z,7.32
2017-11-22T00:38:24.431Z,7.33
2017-11-22T00:38:28.797Z,7.32
2017-11-22T00:38:32.953Z,7.32
2017-11-22T00:38:37.109Z,7.33
2017-11-22T00:38:41.288Z,7.33
2017-11-22T00:38:45.661Z,7.33
2017-11-22T00:38:50.057Z,7.33
2017-11-22T00:38:54.208Z,7.34
2017-11-22T00:38:58.597Z,7.33
2017-11-22T00:39:02.985Z,7.34
2017-11-22T00:39:07.141Z,7.34
2017-11-22T00:39:11.280Z,7.34
2017-11-22T00:39:15.673Z,7.34
2017-11-22T00:39:20.055Z,7.34
2017-11-22T00:39:24.308Z,7.35
2017-11-22T00:39:28.673Z,7.34
2017-11-22T00:39:32.849Z,7.34
2017-11-22T00:39:36.883Z,7.34
2017-11-22T00:39:41.153Z,7.35
2017-11-22T00:39:45.528Z,7.35
2017-11-22T00:39:49.904Z,7.35
2017-11-22T00:39:54.168Z,7.35
2017-11-22T00:39:58.437Z,7.34
2017-11-22T00:40:02.706Z,7.36
2017-11-22T00:40:06.844Z,7.35
2017-11-22T00:40:10.895Z,7.36
2017-11-22T00:40:15.154Z,7.36
2017-11-22T00:40:19.423Z,7.35
2017-11-22T00:40:23.828Z,7.36
2017-11-22T00:40:28.195Z,7.35
2017-11-22T00:40:32.456Z,7.36
2017-11-22T00:40:36.734Z,7.36
2017-11-22T00:40:41.012Z,7.36
2017-11-22T00:40:45.273Z,7.36
2017-11-22T00:40:49.325Z,7.36
2017-11-22T00:40:53.468Z,7.36
2017-11-22T00:40:57.503Z,7.36
2017-11-22T00:41:01.869Z,7.36
2017-11-22T00:41:05.940Z,7.37
2017-11-22T00:41:10.094Z,7.36
2017-11-22T00:41:14.354Z,7.37
2017-11-22T00:41:18.728Z,7.38
2017-11-22T00:41:23.028Z,7.38
2017-11-22T00:41:27.282Z,7.37
2017-11-22T00:41:31.656Z,7.37
2017-11-22T00:41:36.017Z,7.37
2017-11-22T00:41:40.278Z,7.36
2017-11-22T00:41:44.558Z,7.38
2017-11-22T00:41:48.819Z,7.38
2017-11-22T00:41:53.083Z,7.38
2017-11-22T00:41:57.108Z,7.38
2017-11-22T00:42:01.268Z,7.38
2017-11-22T00:42:05.531Z,7.38
2017-11-22T00:42:09.683Z,7.38
2017-11-22T00:42:14.042Z,7.38
2017-11-22T00:42:18.415Z,7.38
2017-11-22T00:42:22.785Z,7.39
2017-11-22T00:42:27.163Z,7.39
2017-11-22T00:42:31.543Z,7.39
2017-11-22T00:42:35.814Z,7.39
2017-11-22T00:42:39.976Z,7.39
2017-11-22T00:42:44.357Z,7.39
2017-11-22T00:42:48.748Z,7.4
2017-11-22T00:42:52.913Z,7.4
2017-11-22T00:42:57.172Z,7.4
2017-11-22T00:43:01.431Z,7.4
2017-11-22T00:43:05.704Z,7.39
2017-11-22T00:43:10.087Z,7.39
2017-11-22T00:43:14.340Z,7.39
2017-11-22T00:43:18.524Z,7.4
2017-11-22T00:43:22.828Z,7.39
2017-11-22T00:43:27.195Z,7.4
2017-11-22T00:43:31.444Z,7.41
2017-11-22T00:43:35.826Z,7.4
2017-11-22T00:43:40.203Z,7.4
2017-11-22T00:43:44.468Z,7.41
2017-11-22T00:43:48.632Z,7.4
2017-11-22T00:43:52.797Z,7.41
2017-11-22T00:43:57.172Z,7.4
2017-11-22T00:44:01.468Z,7.41
2017-11-22T00:44:05.882Z,7.41
2017-11-22T00:44:10.161Z,7.41
2017-11-22T00:44:14.558Z,7.41
2017-11-22T00:44:18.830Z,7.41
2017-11-22T00:44:23.209Z,7.41
2017-11-22T00:44:27.374Z,7.41
2017-11-22T00:44:31.741Z,7.41
2017-11-22T00:44:36.004Z,7.41
2017-11-22T00:44:40.171Z,7.42
2017-11-22T00:44:44.531Z,7.41
2017-11-22T00:44:48.694Z,7.41
2017-11-22T00:44:52.964Z,7.41
2017-11-22T00:44:57.275Z,7.41
2017-11-22T00:45:01.637Z,7.41
2017-11-22T00:45:05.683Z,7.41
2017-11-22T00:45:10.079Z,7.42
2017-11-22T00:45:14.223Z,7.42
2017-11-22T00:45:18.376Z,7.42
2017-11-22T00:45:22.656Z,7.42
2017-11-22T00:45:26.804Z,7.42
2017-11-22T00:45:31.049Z,7.42
2017-11-22T00:45:35.413Z,7.41
2017-11-22T00:45:39.697Z,7.41
2017-11-22T00:45:43.836Z,7.42
2017-11-22T00:45:48.320Z,7.42
2017-11-22T00:45:52.704Z,7.42
2017-11-22T00:45:57.067Z,7.42
2017-11-22T00:46:01.356Z,7.42
2017-11-22T00:46:05.400Z,7.41
2017-11-22T00:46:09.660Z,7.4
2017-11-22T00:46:13.800Z,7.42
2017-11-22T00:46:18.080Z,7.42
2017-11-22T00:46:22.242Z,7.41
2017-11-22T00:46:26.405Z,7.41
2017-11-22T00:46:30.679Z,7.42
2017-11-22T00:46:35.047Z,7.41
2017-11-22T00:46:39.091Z,7.42
2017-11-22T00:46:43.647Z,7.42
2017-11-22T00:46:47.921Z,7.41
2017-11-22T00:46:52.247Z,7.42
2017-11-22T00:46:56.610Z,7.42
2017-11-22T00:47:00.788Z,7.42
2017-11-22T00:47:05.310Z,7.41
2017-11-22T00:47:09.584Z,7.42
2017-11-22T00:47:13.845Z,7.41
2017-11-22T00:47:18.107Z,7.42
2017-11-22T00:47:22.388Z,7.41
2017-11-22T00:47:26.654Z,7.42
2017-11-22T00:47:31.020Z,7.41
2017-11-22T00:47:35.189Z,7.42
2017-11-22T00:47:39.338Z,7.41
2017-11-22T00:47:43.705Z,7.4
2017-11-22T00:47:47.980Z,7.41
2017-11-22T00:47:52.270Z,7.41
2017-11-22T00:47:56.636Z,7.41
2017-11-22T00:48:00.911Z,7.41
2017-11-22T00:48:05.330Z,7.41
2017-11-22T00:48:09.624Z,7.39
2017-11-22T00:48:13.883Z,7.41
2017-11-22T00:48:18.155Z,7.41
2017-11-22T00:48:22.571Z,7.41
2017-11-22T00:48:26.944Z,7.4
2017-11-22T00:48:31.372Z,7.4
2017-11-22T00:48:35.749Z,7.41
2017-11-22T00:48:40.133Z,7.4
2017-11-22T00:48:44.320Z,7.41
2017-11-22T00:48:48.565Z,7.41
2017-11-22T00:48:52.959Z,7.41
2017-11-22T00:48:57.350Z,7.41
2017-11-22T00:49:02.051Z,7.39
2017-11-22T00:49:06.313Z,7.4
2017-11-22T00:49:10.582Z,7.4
2017-11-22T00:49:14.842Z,7.4
2017-11-22T00:49:19.089Z,7.41
2017-11-22T00:49:23.350Z,7.41
2017-11-22T00:49:27.502Z,7.4
2017-11-22T00:49:31.633Z,7.4
2017-11-22T00:49:35.774Z,7.4
2017-11-22T00:49:40.042Z,7.4
2017-11-22T00:49:44.191Z,7.41
2017-11-22T00:49:48.565Z,7.41
2017-11-22T00:49:52.966Z,7.4
2017-11-22T00:49:57.242Z,7.4
2017-11-22T00:50:01.635Z,7.4
2017-11-22T00:50:06.045Z,7.39
2017-11-22T00:50:10.204Z,7.39
2017-11-22T00:50:14.570Z,7.39
2017-11-22T00:50:18.939Z,7.39
2017-11-22T00:50:23.316Z,7.39
2017-11-22T00:50:27.692Z,7.4
2017-11-22T00:50:32.068Z,7.4
2017-11-22T00:50:36.234Z,7.39
2017-11-22T00:50:40.472Z,7.39
2017-11-22T00:50:44.614Z,7.4
2017-11-22T00:50:49.026Z,7.39
2017-11-22T00:50:53.286Z,7.38
2017-11-22T00:50:57.667Z,7.39
2017-11-22T00:51:01.816Z,7.39
2017-11-22T00:51:05.968Z,7.39
2017-11-22T00:51:10.322Z,7.38
2017-11-22T00:51:14.597Z,7.39
2017-11-22T00:51:18.974Z,7.39
2017-11-22T00:51:23.245Z,7.39
2017-11-22T00:51:27.515Z,7.38
2017-11-22T00:51:31.554Z,7.38
2017-11-22T00:51:35.911Z,7.39
2017-11-22T00:51:40.178Z,7.39
2017-11-22T00:51:44.495Z,7.39
2017-11-22T00:51:48.739Z,7.38
2017-11-22T00:51:53.001Z,7.38
2017-11-22T00:51:57.375Z,7.38
2017-11-22T00:52:01.811Z,7.38
2017-11-22T00:52:06.060Z,7.38
2017-11-22T00:52:10.226Z,7.39
2017-11-22T00:52:14.491Z,7.37
2017-11-22T00:52:18.861Z,7.38
2017-11-22T00:52:23.024Z,7.38
2017-11-22T00:52:27.411Z,7.37
2017-11-22T00:52:31.666Z,7.38
2017-11-22T00:52:35.931Z,7.38
2017-11-22T00:52:40.211Z,7.38
2017-11-22T00:52:44.137Z,7.37
2017-11-22T00:52:48.399Z,7.37
2017-11-22T00:52:52.670Z,7.38
2017-11-22T00:52:56.923Z,7.37
2017-11-22T00:53:01.182Z,7.38
2017-11-22T00:53:05.608Z,7.38
2017-11-22T00:53:09.994Z,7.38
2017-11-22T00:53:14.253Z,7.38
2017-11-22T00:53:18.301Z,7.38
2017-11-22T00:53:22.466Z,7.38
2017-11-22T00:53:26.725Z,7.37
2017-11-22T00:53:31.000Z,7.37
2017-11-22T00:53:35.170Z,7.37
2017-11-22T00:53:39.539Z,7.38
2017-11-22T00:53:43.786Z,7.37
2017-11-22T00:53:47.827Z,7.37
2017-11-22T00:53:52.178Z,7.37
2017-11-22T00:53:56.424Z,7.37
2017-11-22T00:54:00.695Z,7.37
2017-11-22T00:54:05.316Z,7.36
2017-11-22T00:54:09.696Z,7.37
2017-11-22T00:54:13.853Z,7.37
2017-11-22T00:54:18.235Z,7.36
2017-11-22T00:54:22.489Z,7.37
2017-11-22T00:54:26.747Z,7.36
2017-11-22T00:54:31.127Z,7.37
2017-11-22T00:54:35.180Z,7.37
2017-11-22T00:54:39.452Z,7.37
2017-11-22T00:54:43.765Z,7.36
2017-11-22T00:54:48.126Z,7.36
2017-11-22T00:54:52.500Z,7.37
2017-11-22T00:54:56.884Z,7.36
2017-11-22T00:55:01.249Z,7.36
2017-11-22T00:55:05.675Z,7.37
2017-11-22T00:55:09.944Z,7.36
2017-11-22T00:55:14.194Z,7.36
2017-11-22T00:55:18.346Z,7.36
2017-11-22T00:55:22.498Z,7.35
2017-11-22T00:55:26.645Z,7.36
2017-11-22T00:55:30.799Z,7.36
2017-11-22T00:55:34.977Z,7.36
2017-11-22T00:55:39.156Z,7.35
2017-11-22T00:55:43.531Z,7.36
2017-11-22T00:55:47.696Z,7.35
2017-11-22T00:55:52.069Z,7.35
2017-11-22T00:55:56.211Z,7.35
2017-11-22T00:56:00.598Z,7.35
2017-11-22T00:56:04.984Z,7.36
2017-11-22T00:56:09.240Z,7.35
2017-11-22T00:56:13.388Z,7.36
2017-11-22T00:56:17.646Z,7.35
2017-11-22T00:56:21.787Z,7.34
2017-11-22T00:56:26.044Z,7.34
2017-11-22T00:56:30.291Z,7.34
2017-11-22T00:56:34.448Z,7.35
2017-11-22T00:56:38.613Z,7.34
2017-11-22T00:56:42.990Z,7.34
2017-11-22T00:56:47.026Z,7.34
2017-11-22T00:56:51.070Z,7.33
2017-11-22T00:56:55.339Z,7.33
2017-11-22T00:56:59.600Z,7.34
2017-11-22T00:57:03.992Z,7.33
2017-11-22T00:57:08.241Z,7.33